createdAt,value
2018-07-12T00:01:20.564Z,40.23
2018-07-12T00:06:23.373Z,37.67
2018-07-12T00:11:26.180Z,37.67
2018-07-12T00:16:28.992Z,39.83
2018-07-12T00:21:31.792Z,41.67
2018-07-12T00:26:34.601Z,41.10
2018-07-12T00:31:37.157Z,35.27
2018-07-12T00:36:40.015Z,42.23
2018-07-12T00:41:42.826Z,34.53
2018-07-12T00:46:45.632Z,34.03
2018-07-12T00:51:48.193Z,34.07
2018-07-12T00:56:51.005Z,33.37
2018-07-12T01:01:53.834Z,32.00
2018-07-12T01:06:56.393Z,31.80
2018-07-12T01:11:59.204Z,33.70
2018-07-12T01:17:02.009Z,36.40
2018-07-12T01:22:04.825Z,39.27
2018-07-12T01:27:07.628Z,39.83
2018-07-12T01:32:10.186Z,37.67
2018-07-12T01:37:12.996Z,41.17
2018-07-12T01:42:15.824Z,38.17
2018-07-12T01:47:18.629Z,41.47
2018-07-12T01:52:21.417Z,39.10
2018-07-12T01:57:24.226Z,36.70
2018-07-12T02:02:27.029Z,38.80
2018-07-12T02:07:29.580Z,40.70
2018-07-12T02:12:32.385Z,43.07
2018-07-12T02:17:34.965Z,45.67
2018-07-12T02:22:37.526Z,36.30
2018-07-12T02:27:40.464Z,38.20
2018-07-12T02:32:43.145Z,40.40
2018-07-12T02:37:45.957Z,36.60
2018-07-12T02:42:48.775Z,38.50
2018-07-12T02:47:51.585Z,46.00
2018-07-12T02:52:54.141Z,39.53
2018-07-12T02:57:56.996Z,39.30
2018-07-12T03:02:59.806Z,42.57
2018-07-12T03:08:02.410Z,40.57
2018-07-12T03:13:05.215Z,43.13
2018-07-12T03:18:08.049Z,43.47
2018-07-12T03:23:10.597Z,41.53
2018-07-12T03:28:13.410Z,41.83
2018-07-12T03:33:16.209Z,38.67
2018-07-12T03:38:18.767Z,44.83
2018-07-12T03:43:21.580Z,38.00
2018-07-12T03:48:24.385Z,43.87
2018-07-12T03:53:27.184Z,44.07
2018-07-12T03:58:29.722Z,37.73
2018-07-12T04:03:32.265Z,36.20
2018-07-12T04:08:35.051Z,42.13
2018-07-12T04:13:37.868Z,36.53
2018-07-12T04:18:40.655Z,37.50
2018-07-12T04:23:43.448Z,37.23
2018-07-12T04:28:46.244Z,35.53
2018-07-12T04:33:48.780Z,36.77
2018-07-12T04:38:51.581Z,34.67
2018-07-12T04:43:54.117Z,34.30
2018-07-12T04:48:56.912Z,31.43
2018-07-12T04:53:59.708Z,32.33
2018-07-12T04:59:02.500Z,30.27
2018-07-12T05:04:05.288Z,28.73
2018-07-12T05:09:09.116Z,30.23
2018-07-12T05:14:11.902Z,32.23
2018-07-12T05:19:14.432Z,30.17
2018-07-12T05:24:17.240Z,32.67
2018-07-12T05:29:20.029Z,27.03
2018-07-12T05:34:23.360Z,25.70
2018-07-12T05:39:27.129Z,25.57
2018-07-12T05:44:31.120Z,23.07
2018-07-12T05:49:35.137Z,24.70
2018-07-12T05:54:38.931Z,23.50
2018-07-12T05:59:42.692Z,24.07
2018-07-12T06:04:46.676Z,24.70
2018-07-12T06:09:50.464Z,24.50
2018-07-12T06:14:54.208Z,19.93
2018-07-12T06:19:57.994Z,22.53
2018-07-12T06:25:01.753Z,22.93
2018-07-12T06:30:05.753Z,29.77
2018-07-12T06:35:10.509Z,31.17
2018-07-12T06:40:14.256Z,32.70
2018-07-12T06:45:18.018Z,35.73
2018-07-12T06:50:21.767Z,41.00
2018-07-12T06:55:25.808Z,42.53
2018-07-12T07:00:29.810Z,47.93
2018-07-12T07:05:33.573Z,49.30
2018-07-12T07:10:37.636Z,41.67
2018-07-12T07:15:41.408Z,40.93
2018-07-12T07:20:45.417Z,38.23
2018-07-12T07:25:49.176Z,40.00
2018-07-12T07:30:52.944Z,46.37
2018-07-12T07:35:56.980Z,46.57
2018-07-12T07:41:00.741Z,45.07
2018-07-12T07:46:04.528Z,40.97
2018-07-12T07:51:09.329Z,37.57
2018-07-12T07:56:13.103Z,36.80
2018-07-12T08:01:17.097Z,37.67
2018-07-12T08:06:20.863Z,42.50
2018-07-12T08:11:24.642Z,45.57
2018-07-12T08:16:28.649Z,47.00
2018-07-12T08:21:32.644Z,47.07
2018-07-12T08:26:36.706Z,46.97
2018-07-12T08:31:40.476Z,44.30
2018-07-12T08:36:44.236Z,45.70
2018-07-12T08:41:48.000Z,44.40
2018-07-12T08:46:51.760Z,46.13
2018-07-12T08:51:55.524Z,47.20
2018-07-12T08:56:59.295Z,48.83
2018-07-12T09:02:03.107Z,46.50
2018-07-12T09:07:06.864Z,49.43
2018-07-12T09:12:10.734Z,47.50
2018-07-12T09:17:14.575Z,48.60
2018-07-12T09:22:18.343Z,49.10
2018-07-12T09:27:22.134Z,50.00
2018-07-12T09:32:25.949Z,49.23
2018-07-12T09:37:29.746Z,43.27
2018-07-12T09:42:33.748Z,32.90
2018-07-12T09:47:37.567Z,38.10
2018-07-12T09:52:41.331Z,33.20
2018-07-12T09:57:56.600Z,28.97
2018-07-12T10:03:05.824Z,25.03
2018-07-12T10:08:15.025Z,34.80
2018-07-12T10:13:24.911Z,31.77
2018-07-12T10:18:29.239Z,30.03
2018-07-12T10:23:33.035Z,20.10
2018-07-12T10:28:36.860Z,17.90
2018-07-12T10:33:40.617Z,16.97
2018-07-12T10:38:44.409Z,17.23
2018-07-12T10:43:48.175Z,19.90
2018-07-12T10:48:51.951Z,19.07
2018-07-12T10:53:55.751Z,16.10
2018-07-12T10:58:59.577Z,12.73
2018-07-12T11:04:03.556Z,14.10
2018-07-12T11:09:08.257Z,16.40
2018-07-12T11:14:11.988Z,14.57
2018-07-12T11:19:15.769Z,22.27
2018-07-12T11:24:19.768Z,25.27
2018-07-12T11:29:35.689Z,26.57
2018-07-12T11:34:39.448Z,23.30
2018-07-12T11:39:43.211Z,23.13
2018-07-12T11:44:47.399Z,15.03
2018-07-12T11:49:51.175Z,15.17
2018-07-12T11:54:55.120Z,15.03
2018-07-12T11:59:58.892Z,18.43
2018-07-12T12:05:02.745Z,16.63
2018-07-12T12:10:06.518Z,16.93
2018-07-12T12:15:12.285Z,16.42
2018-07-12T12:20:16.423Z,15.10
2018-07-12T12:25:20.454Z,14.37
2018-07-12T12:30:24.355Z,15.23
2018-07-12T12:35:28.127Z,15.17
2018-07-12T12:40:31.896Z,15.97
2018-07-12T12:45:35.659Z,14.87
2018-07-12T12:50:39.449Z,13.70
2018-07-12T12:55:43.216Z,15.37
2018-07-12T13:00:47.252Z,13.30
2018-07-12T13:05:51.175Z,14.17
2018-07-12T13:10:55.146Z,13.30
2018-07-12T13:15:58.991Z,15.47
2018-07-12T13:21:02.663Z,13.43
2018-07-12T13:26:06.486Z,14.67
2018-07-12T13:31:10.278Z,15.90
2018-07-12T13:36:14.031Z,15.03
2018-07-12T13:41:17.795Z,14.20
2018-07-12T13:46:21.561Z,15.97
2018-07-12T13:51:25.329Z,15.13
2018-07-12T13:56:29.321Z,15.73
2018-07-12T14:01:33.100Z,16.47
2018-07-12T14:06:37.112Z,16.07
2018-07-12T14:11:41.152Z,18.33
2018-07-12T14:16:44.975Z,16.37
2018-07-12T14:21:48.989Z,20.30
2018-07-12T14:26:52.761Z,14.67
2018-07-12T14:31:56.603Z,14.50
2018-07-12T14:37:00.643Z,15.40
2018-07-12T14:42:04.439Z,15.32
2018-07-12T14:47:08.283Z,14.57
2018-07-12T14:52:12.295Z,13.87
2018-07-12T14:57:16.934Z,13.50
2018-07-12T15:02:20.712Z,12.57
2018-07-12T15:07:24.716Z,15.70
2018-07-12T15:12:28.594Z,12.50
2018-07-12T15:17:32.356Z,12.77
2018-07-12T15:22:36.127Z,12.07
2018-07-12T15:27:39.911Z,12.40
2018-07-12T15:32:43.679Z,12.70
2018-07-12T15:37:47.684Z,13.60
2018-07-12T15:42:51.487Z,14.90
2018-07-12T15:47:55.260Z,15.80
2018-07-12T15:52:59.721Z,15.27
2018-07-12T15:58:03.706Z,15.80
2018-07-12T16:03:07.468Z,15.23
2018-07-12T16:08:11.248Z,15.72
2018-07-12T16:13:15.016Z,15.87
2018-07-12T16:18:19.025Z,16.20
2018-07-12T16:23:23.053Z,15.83
2018-07-12T16:28:26.842Z,15.23
2018-07-12T16:33:30.596Z,15.20
2018-07-12T16:38:34.360Z,13.87
2018-07-12T16:43:38.136Z,14.03
2018-07-12T16:48:42.021Z,15.73
2018-07-12T16:53:45.667Z,14.47
2018-07-12T16:58:49.812Z,13.30
2018-07-12T17:03:53.804Z,13.60
2018-07-12T17:08:57.816Z,13.80
2018-07-12T17:14:01.892Z,12.10
2018-07-12T17:19:05.826Z,12.23
2018-07-12T17:24:09.811Z,12.70
2018-07-12T17:29:13.607Z,12.30
2018-07-12T17:34:17.728Z,12.60
2018-07-12T17:39:21.745Z,11.60
2018-07-12T17:44:26.388Z,11.90
2018-07-12T17:49:30.492Z,11.63
2018-07-12T17:54:34.264Z,10.33
2018-07-12T17:59:38.022Z,10.23
2018-07-12T18:04:41.798Z,11.03
2018-07-12T18:09:45.861Z,10.83
2018-07-12T18:14:49.844Z,10.80
2018-07-12T18:19:53.837Z,10.43
2018-07-12T18:24:57.625Z,11.00
2018-07-12T18:30:01.647Z,11.87
2018-07-12T18:35:05.423Z,10.63
2018-07-12T18:40:09.192Z,11.40
2018-07-12T18:45:13.185Z,11.63
2018-07-12T18:50:16.956Z,11.40
2018-07-12T18:55:20.956Z,11.73
2018-07-12T19:00:24.724Z,12.23
2018-07-12T19:05:28.506Z,13.23
2018-07-12T19:10:32.271Z,14.47
2018-07-12T19:15:36.036Z,16.03
2018-07-12T19:20:39.883Z,15.27
2018-07-12T19:25:43.668Z,20.83
2018-07-12T19:30:47.431Z,18.43
2018-07-12T19:35:51.215Z,17.75
2018-07-12T19:40:55.192Z,17.03
2018-07-12T19:45:59.193Z,14.03
2018-07-12T19:51:02.952Z,14.43
2018-07-12T19:56:06.764Z,14.13
2018-07-12T20:01:10.833Z,14.10
2018-07-12T20:06:14.731Z,13.77
2018-07-12T20:11:18.720Z,13.77
2018-07-12T20:16:22.480Z,13.40
2018-07-12T20:21:26.533Z,14.67
2018-07-12T20:26:30.544Z,13.63
2018-07-12T20:31:34.576Z,13.97
2018-07-12T20:36:38.581Z,14.97
2018-07-12T20:41:42.619Z,13.50
2018-07-12T20:46:46.398Z,15.33
2018-07-12T20:51:50.180Z,15.00
2018-07-12T20:56:53.956Z,16.27
2018-07-12T21:01:57.736Z,16.17
2018-07-12T21:07:01.499Z,16.27
2018-07-12T21:12:05.552Z,17.13
2018-07-12T21:17:09.324Z,17.40
2018-07-12T21:22:13.239Z,18.67
2018-07-12T21:27:17.224Z,18.63
2018-07-12T21:32:20.994Z,18.87
2018-07-12T21:37:24.764Z,19.10
2018-07-12T21:42:28.547Z,18.43
2018-07-12T21:47:32.484Z,18.90
2018-07-12T21:52:36.477Z,19.47
2018-07-12T21:57:40.271Z,20.03
2018-07-12T22:02:44.287Z,20.10
2018-07-12T22:08:23.108Z,21.13
2018-07-12T22:13:27.612Z,19.87
2018-07-12T22:18:31.387Z,20.67
2018-07-12T22:23:35.494Z,19.83
2018-07-12T22:28:39.475Z,21.27
2018-07-12T22:33:43.264Z,22.20
2018-07-12T22:38:47.261Z,21.83
2018-07-12T22:43:51.028Z,20.60
2018-07-12T22:48:54.924Z,19.57
2018-07-12T22:53:58.568Z,18.77
2018-07-12T22:59:02.335Z,19.77
2018-07-12T23:04:06.115Z,19.90
2018-07-12T23:09:10.107Z,20.30
2018-07-12T23:14:13.931Z,19.90
2018-07-12T23:19:17.996Z,19.47
2018-07-12T23:24:21.763Z,19.57
2018-07-12T23:29:25.836Z,20.17
2018-07-12T23:34:29.832Z,19.40
2018-07-12T23:39:33.841Z,19.15
2018-07-12T23:44:37.860Z,19.63
2018-07-12T23:49:41.866Z,19.50
2018-07-12T23:54:45.892Z,19.47
2018-07-12T23:59:49.660Z,18.40
